ΕΜΥ, Εθνική Μετεωρολογική Υπηρεσία - Δελτία Καιρού, Προγνώσεις

ΑΕΡΟΝΑΥΤΙΛΙΑ

GREEK AIRPORTS CODES

LGTT 281000Z 20009KT CAVOK 31/12 Q1011 RMK FEW180=

EUROPEAN AIRPORTS CODES

LFPO 281030Z 35006KT 310V020 9999 BKN040 17/08 Q1022 NOSIG=